createdAt,value
2019-03-24T00:00:08.609Z,23.40
2019-03-24T00:01:08.558Z,25.60
2019-03-24T00:02:08.589Z,25.20
2019-03-24T00:03:08.523Z,21.90
2019-03-24T00:04:08.514Z,21.10
2019-03-24T00:05:08.452Z,22.60
2019-03-24T00:06:08.548Z,21.60
2019-03-24T00:07:08.435Z,27.40
2019-03-24T00:08:08.420Z,20.70
2019-03-24T00:09:08.407Z,22.10
2019-03-24T00:10:08.410Z,21.10
2019-03-24T00:11:08.469Z,24.40
2019-03-24T00:12:08.374Z,23.80
2019-03-24T00:13:08.410Z,22.90
2019-03-24T00:14:08.376Z,19.60
2019-03-24T00:15:08.443Z,21.70
2019-03-24T00:16:08.489Z,22.10
2019-03-24T00:17:08.366Z,21.10
2019-03-24T00:18:08.368Z,24.60
2019-03-24T00:19:08.444Z,23.50
2019-03-24T00:20:10.282Z,26.30
2019-03-24T00:21:08.366Z,29.30
2019-03-24T00:22:08.574Z,18.80
2019-03-24T00:23:08.248Z,24.70
2019-03-24T00:24:08.300Z,21.90
2019-03-24T00:25:08.209Z,21.60
2019-03-24T00:26:08.288Z,21.10
2019-03-24T00:27:08.306Z,21.70
2019-03-24T00:28:08.208Z,23.00
2019-03-24T00:29:08.243Z,25.70
2019-03-24T00:30:08.284Z,29.70
2019-03-24T00:31:08.149Z,24.10
2019-03-24T00:32:08.227Z,24.00
2019-03-24T00:33:08.179Z,22.70
2019-03-24T00:34:08.248Z,25.10
2019-03-24T00:35:08.161Z,21.50
2019-03-24T00:36:08.176Z,21.80
2019-03-24T00:37:08.149Z,22.70
2019-03-24T00:38:08.117Z,24.00
2019-03-24T00:39:08.238Z,21.50
2019-03-24T00:40:08.151Z,29.80
2019-03-24T00:41:08.099Z,21.50
2019-03-24T00:42:08.101Z,23.50
2019-03-24T00:43:08.086Z,23.60
2019-03-24T00:44:08.120Z,26.70
2019-03-24T00:45:07.969Z,24.00
2019-03-24T00:46:08.176Z,23.70
2019-03-24T00:47:08.055Z,26.00
2019-03-24T00:48:08.131Z,23.90
2019-03-24T00:49:07.992Z,20.70
2019-03-24T00:50:08.020Z,21.10
2019-03-24T00:51:07.927Z,25.50
2019-03-24T00:52:07.976Z,21.90
2019-03-24T00:53:07.869Z,25.00
2019-03-24T00:54:07.899Z,24.90
2019-03-24T00:55:07.875Z,21.20
2019-03-24T00:56:07.872Z,24.60
2019-03-24T00:57:07.901Z,27.00
2019-03-24T00:58:07.807Z,23.10
2019-03-24T00:59:07.819Z,21.20
2019-03-24T01:00:07.893Z,22.60
2019-03-24T01:01:07.889Z,22.50
2019-03-24T01:02:07.865Z,22.80
2019-03-24T01:03:07.895Z,23.70
2019-03-24T01:04:07.809Z,23.50
2019-03-24T01:05:07.868Z,21.10
2019-03-24T01:06:07.732Z,26.50
2019-03-24T01:07:07.714Z,25.90
2019-03-24T01:08:07.794Z,23.60
2019-03-24T01:09:07.748Z,27.10
2019-03-24T01:10:07.728Z,23.00
2019-03-24T01:11:07.777Z,26.10
2019-03-24T01:12:07.685Z,24.30
2019-03-24T01:13:07.732Z,24.70
2019-03-24T01:14:07.685Z,26.10
2019-03-24T01:15:07.740Z,26.30
2019-03-24T01:16:07.622Z,21.50
2019-03-24T01:17:07.631Z,21.00
2019-03-24T01:18:07.655Z,21.30
2019-03-24T01:19:07.638Z,26.60
2019-03-24T01:20:07.582Z,25.70
2019-03-24T01:21:07.564Z,23.80
2019-03-24T01:22:07.588Z,22.10
2019-03-24T01:23:08.560Z,26.20
2019-03-24T01:24:07.601Z,28.60
2019-03-24T01:25:07.536Z,22.70
2019-03-24T01:26:07.571Z,25.00
2019-03-24T01:27:07.603Z,25.50
2019-03-24T01:28:07.595Z,23.70
2019-03-24T01:29:07.551Z,26.30
2019-03-24T01:30:07.537Z,22.90
2019-03-24T01:31:07.615Z,23.70
2019-03-24T01:32:07.562Z,25.80
2019-03-24T01:33:07.523Z,26.60
2019-03-24T01:34:07.538Z,24.60
2019-03-24T01:35:07.471Z,25.50
2019-03-24T01:36:07.499Z,23.80
2019-03-24T01:37:07.438Z,25.60
2019-03-24T01:38:07.442Z,29.00
2019-03-24T01:39:07.445Z,22.50
2019-03-24T01:40:07.383Z,26.10
2019-03-24T01:41:08.131Z,23.00
2019-03-24T01:42:07.419Z,24.00
2019-03-24T01:43:07.390Z,25.60
2019-03-24T01:44:07.422Z,23.90
2019-03-24T01:45:07.352Z,22.10
2019-03-24T01:46:07.337Z,26.10
2019-03-24T01:47:07.335Z,28.90
2019-03-24T01:48:07.397Z,26.60
2019-03-24T01:49:07.376Z,26.90
2019-03-24T01:50:07.315Z,28.10
2019-03-24T01:51:07.275Z,28.30
2019-03-24T01:52:07.255Z,26.90
2019-03-24T01:53:07.275Z,28.40
2019-03-24T01:54:07.303Z,27.90
2019-03-24T01:55:07.251Z,29.60
2019-03-24T01:56:07.234Z,28.20
2019-03-24T01:57:07.275Z,26.10
2019-03-24T01:58:07.569Z,28.60
2019-03-24T01:59:07.251Z,25.20
2019-03-24T02:00:07.213Z,25.40
2019-03-24T02:01:07.135Z,27.60
2019-03-24T02:02:07.188Z,25.70
2019-03-24T02:03:07.244Z,23.60
2019-03-24T02:04:07.212Z,29.40
2019-03-24T02:05:07.137Z,29.30
2019-03-24T02:06:07.099Z,28.40
2019-03-24T02:07:07.112Z,32.60
2019-03-24T02:08:07.143Z,30.00
2019-03-24T02:09:07.065Z,34.20
2019-03-24T02:10:07.150Z,30.20
2019-03-24T02:11:07.094Z,27.30
2019-03-24T02:12:07.023Z,26.90
2019-03-24T02:13:07.031Z,30.40
2019-03-24T02:14:07.086Z,27.00
2019-03-24T02:15:07.133Z,29.20
2019-03-24T02:16:09.613Z,27.50
2019-03-24T02:17:07.027Z,28.70
2019-03-24T02:18:07.035Z,31.50
2019-03-24T02:19:06.962Z,28.80
2019-03-24T02:20:07.158Z,26.20
2019-03-24T02:21:06.913Z,29.20
2019-03-24T02:22:06.990Z,27.40
2019-03-24T02:23:06.988Z,33.10
2019-03-24T02:24:06.914Z,28.90
2019-03-24T02:25:06.874Z,28.70
2019-03-24T02:26:06.998Z,29.20
2019-03-24T02:27:06.952Z,26.00
2019-03-24T02:28:06.859Z,33.70
2019-03-24T02:29:06.920Z,28.00
2019-03-24T02:30:06.855Z,28.10
2019-03-24T02:31:06.940Z,33.30
2019-03-24T02:32:06.833Z,34.60
2019-03-24T02:33:06.830Z,31.80
2019-03-24T02:34:06.841Z,26.00
2019-03-24T02:35:06.775Z,31.80
2019-03-24T02:36:06.821Z,28.70
2019-03-24T02:37:06.845Z,34.10
2019-03-24T02:38:06.798Z,30.70
2019-03-24T02:39:06.865Z,27.70
2019-03-24T02:40:06.758Z,29.90
2019-03-24T02:41:06.788Z,30.10
2019-03-24T02:42:07.671Z,32.80
2019-03-24T02:43:06.725Z,29.40
2019-03-24T02:44:06.682Z,28.00
2019-03-24T02:45:06.998Z,32.10
2019-03-24T02:46:06.699Z,33.70
2019-03-24T02:47:06.693Z,34.00
2019-03-24T02:48:06.789Z,34.20
2019-03-24T02:49:06.625Z,34.40
2019-03-24T02:50:06.702Z,32.00
2019-03-24T02:51:06.601Z,34.20
2019-03-24T02:52:06.712Z,37.20
2019-03-24T02:53:06.682Z,34.40
2019-03-24T02:54:06.635Z,35.80
2019-03-24T02:55:06.597Z,29.00
2019-03-24T02:56:06.629Z,33.50
2019-03-24T02:57:06.662Z,35.80
2019-03-24T02:58:06.669Z,38.20
2019-03-24T02:59:06.687Z,31.60
2019-03-24T03:00:06.566Z,32.00
2019-03-24T03:01:06.529Z,35.00
2019-03-24T03:02:06.538Z,32.10
2019-03-24T03:03:06.544Z,34.10
2019-03-24T03:04:06.562Z,30.60
2019-03-24T03:05:06.513Z,38.20
2019-03-24T03:06:06.542Z,35.60
2019-03-24T03:07:06.491Z,33.60
2019-03-24T03:08:06.526Z,33.50
2019-03-24T03:09:06.466Z,39.20
2019-03-24T03:10:06.420Z,32.50
2019-03-24T03:11:06.497Z,32.80
2019-03-24T03:12:06.454Z,31.40
2019-03-24T03:13:06.450Z,32.70
2019-03-24T03:14:06.424Z,32.80
2019-03-24T03:15:06.476Z,36.90
2019-03-24T03:16:06.431Z,33.10
2019-03-24T03:17:06.374Z,31.70
2019-03-24T03:18:07.722Z,32.40
2019-03-24T03:19:06.495Z,34.30
2019-03-24T03:20:06.474Z,30.10
2019-03-24T03:21:06.774Z,31.50
2019-03-24T03:22:06.395Z,36.00
2019-03-24T03:23:06.387Z,36.50
2019-03-24T03:24:06.320Z,35.40
2019-03-24T03:25:06.519Z,35.10
2019-03-24T03:26:06.283Z,37.60
2019-03-24T03:27:06.323Z,35.50
2019-03-24T03:28:06.451Z,38.70
2019-03-24T03:29:06.257Z,33.60
2019-03-24T03:30:06.247Z,38.40
2019-03-24T03:31:06.250Z,35.10
2019-03-24T03:32:06.281Z,39.40
2019-03-24T03:33:06.165Z,35.20
2019-03-24T03:34:06.201Z,36.30
2019-03-24T03:35:06.192Z,40.00
2019-03-24T03:36:06.102Z,37.20
2019-03-24T03:37:06.201Z,32.30
2019-03-24T03:38:06.202Z,39.30
2019-03-24T03:39:06.141Z,36.10
2019-03-24T03:40:06.225Z,35.10
2019-03-24T03:41:06.242Z,37.10
2019-03-24T03:42:06.244Z,38.20
2019-03-24T03:43:06.117Z,36.40
2019-03-24T03:44:06.130Z,37.50
2019-03-24T03:45:06.144Z,35.10
2019-03-24T03:46:06.084Z,36.40
2019-03-24T03:47:06.067Z,43.30
2019-03-24T03:48:06.030Z,32.10
2019-03-24T03:49:06.034Z,35.80
2019-03-24T03:50:06.998Z,39.60
2019-03-24T03:51:06.088Z,39.70
2019-03-24T03:52:05.997Z,37.30
2019-03-24T03:53:05.957Z,40.40
2019-03-24T03:54:06.001Z,39.00
2019-03-24T03:55:05.974Z,44.30
2019-03-24T03:56:05.935Z,40.80
2019-03-24T03:57:05.908Z,37.70
2019-03-24T03:58:05.938Z,34.70
2019-03-24T03:59:05.867Z,35.20
2019-03-24T04:00:06.006Z,37.40
2019-03-24T04:01:05.912Z,39.70
2019-03-24T04:02:05.924Z,38.90
2019-03-24T04:03:05.926Z,41.20
2019-03-24T04:04:05.933Z,43.40
2019-03-24T04:05:05.954Z,39.90
2019-03-24T04:06:05.874Z,44.80
2019-03-24T04:07:05.807Z,42.40
2019-03-24T04:08:05.808Z,38.40
2019-03-24T04:09:05.809Z,45.10
2019-03-24T04:10:05.942Z,44.20
2019-03-24T04:11:05.840Z,48.50
2019-03-24T04:12:05.788Z,40.40
2019-03-24T04:13:05.803Z,43.70
2019-03-24T04:14:05.755Z,40.80
2019-03-24T04:15:05.757Z,44.70
2019-03-24T04:16:05.782Z,41.20
2019-03-24T04:17:07.859Z,49.20
2019-03-24T04:18:05.857Z,44.30
2019-03-24T04:19:05.696Z,43.30
2019-03-24T04:20:05.677Z,52.40
2019-03-24T04:21:05.743Z,47.00
2019-03-24T04:22:05.623Z,49.70
2019-03-24T04:23:05.640Z,57.70
2019-03-24T04:24:05.582Z,57.70
2019-03-24T04:25:05.699Z,43.30
2019-03-24T04:26:05.583Z,39.90
2019-03-24T04:27:05.594Z,42.00
2019-03-24T04:28:05.547Z,40.20
2019-03-24T04:29:05.555Z,42.40
2019-03-24T04:30:05.545Z,41.00
2019-03-24T04:31:05.552Z,43.00
2019-03-24T04:32:05.544Z,41.50
2019-03-24T04:33:05.519Z,35.30
2019-03-24T04:34:05.507Z,34.60
2019-03-24T04:35:05.490Z,40.50
2019-03-24T04:36:05.650Z,37.10
2019-03-24T04:37:05.638Z,35.70
2019-03-24T04:38:05.544Z,38.60
2019-03-24T04:39:05.657Z,38.80
2019-03-24T04:40:05.445Z,34.00
2019-03-24T04:41:05.478Z,38.20
2019-03-24T04:42:05.427Z,37.90
2019-03-24T04:43:05.577Z,38.30
2019-03-24T04:44:05.699Z,37.70
2019-03-24T04:45:06.100Z,37.10
2019-03-24T04:46:05.398Z,38.80
2019-03-24T04:47:05.355Z,43.60
2019-03-24T04:48:05.375Z,37.10
2019-03-24T04:49:05.364Z,34.40
2019-03-24T04:50:05.320Z,34.80
2019-03-24T04:51:05.291Z,40.00
2019-03-24T04:52:05.328Z,44.70
2019-03-24T04:53:05.305Z,39.90
2019-03-24T04:54:05.268Z,38.00
2019-03-24T04:55:05.247Z,33.80
2019-03-24T04:56:05.244Z,38.40
2019-03-24T04:57:05.240Z,42.50
2019-03-24T04:58:05.966Z,42.00
2019-03-24T04:59:05.267Z,41.30
2019-03-24T05:00:05.201Z,42.70
2019-03-24T05:01:05.192Z,44.00
2019-03-24T05:02:05.232Z,45.40
2019-03-24T05:03:05.951Z,41.60
2019-03-24T05:04:05.198Z,40.80
2019-03-24T05:05:05.137Z,37.60
2019-03-24T05:06:05.125Z,40.60
2019-03-24T05:07:05.136Z,44.30
2019-03-24T05:08:05.115Z,39.70
2019-03-24T05:09:05.141Z,40.10
2019-03-24T05:10:05.085Z,44.70
2019-03-24T05:11:05.121Z,45.20
2019-03-24T05:12:05.133Z,40.10
2019-03-24T05:13:05.060Z,38.90
2019-03-24T05:14:05.953Z,43.40
2019-03-24T05:15:05.031Z,40.80
2019-03-24T05:16:05.087Z,50.60
2019-03-24T05:17:05.026Z,40.80
2019-03-24T05:18:05.006Z,40.10
2019-03-24T05:19:05.033Z,45.40
2019-03-24T05:20:05.057Z,41.50
2019-03-24T05:21:04.987Z,38.90
2019-03-24T05:22:05.008Z,38.80
2019-03-24T05:23:04.959Z,41.90
2019-03-24T05:24:05.038Z,42.50
2019-03-24T05:25:04.975Z,38.70
2019-03-24T05:26:04.935Z,37.90
2019-03-24T05:27:04.956Z,42.10
2019-03-24T05:28:04.907Z,41.20
2019-03-24T05:29:04.946Z,41.70
2019-03-24T05:30:04.913Z,42.10
2019-03-24T05:31:04.873Z,40.80
2019-03-24T05:32:04.853Z,40.50
2019-03-24T05:33:04.851Z,40.70
2019-03-24T05:34:04.879Z,46.40
2019-03-24T05:35:05.832Z,38.00
2019-03-24T05:36:04.809Z,39.60
2019-03-24T05:37:04.808Z,41.30
2019-03-24T05:38:04.850Z,38.40
2019-03-24T05:39:04.773Z,43.90
2019-03-24T05:40:04.831Z,43.00
2019-03-24T05:41:04.767Z,42.40
2019-03-24T05:42:04.795Z,38.40
2019-03-24T05:43:04.744Z,40.00
2019-03-24T05:44:04.719Z,40.70
2019-03-24T05:45:04.788Z,41.80
2019-03-24T05:46:04.714Z,41.90
2019-03-24T05:47:04.706Z,41.40
2019-03-24T05:48:04.768Z,36.00
2019-03-24T05:49:04.701Z,48.70
2019-03-24T05:50:04.725Z,49.80
2019-03-24T05:51:04.649Z,41.80
2019-03-24T05:52:04.641Z,39.10
2019-03-24T05:53:04.624Z,46.70
2019-03-24T05:54:04.625Z,39.50
2019-03-24T05:55:04.627Z,40.00
2019-03-24T05:56:04.678Z,43.40
2019-03-24T05:57:04.593Z,39.50
2019-03-24T05:58:04.588Z,42.40
2019-03-24T05:59:04.585Z,42.00
2019-03-24T06:00:04.546Z,41.40
2019-03-24T06:01:04.627Z,36.00
2019-03-24T06:02:04.549Z,40.50
2019-03-24T06:03:04.533Z,33.30
2019-03-24T06:04:04.513Z,37.60
2019-03-24T06:05:04.502Z,38.80
2019-03-24T06:06:04.476Z,43.50
2019-03-24T06:07:04.520Z,41.40
2019-03-24T06:08:04.503Z,44.40
2019-03-24T06:09:04.481Z,47.30
2019-03-24T06:10:05.013Z,53.90
2019-03-24T06:11:04.431Z,52.50
2019-03-24T06:12:04.471Z,51.80
2019-03-24T06:13:04.415Z,50.50
2019-03-24T06:14:04.448Z,48.60
2019-03-24T06:15:04.392Z,49.20
2019-03-24T06:16:04.481Z,47.90
2019-03-24T06:17:04.434Z,60.90
2019-03-24T06:18:04.359Z,68.00
2019-03-24T06:19:04.345Z,64.00
2019-03-24T06:20:04.400Z,66.00
2019-03-24T06:21:04.366Z,66.40
2019-03-24T06:22:04.333Z,71.00
2019-03-24T06:23:12.075Z,58.80
2019-03-24T06:24:04.321Z,61.80
2019-03-24T06:25:04.303Z,73.20
2019-03-24T06:26:04.299Z,70.00
2019-03-24T06:27:04.264Z,73.00
2019-03-24T06:28:04.309Z,74.00
2019-03-24T06:29:04.240Z,68.90
2019-03-24T06:30:04.228Z,66.80
2019-03-24T06:31:04.285Z,58.90
2019-03-24T06:32:04.207Z,55.00
2019-03-24T06:33:04.244Z,60.00
2019-03-24T06:34:04.180Z,63.50
2019-03-24T06:35:04.182Z,62.40
2019-03-24T06:36:04.162Z,70.10
2019-03-24T06:37:04.151Z,57.40
2019-03-24T06:38:04.184Z,59.80
2019-03-24T06:39:04.195Z,61.70
2019-03-24T06:40:04.121Z,59.90
2019-03-24T06:41:04.114Z,64.00
2019-03-24T06:42:04.092Z,67.10
2019-03-24T06:43:04.136Z,64.20
2019-03-24T06:44:04.075Z,59.40
2019-03-24T06:45:04.076Z,60.40
2019-03-24T06:46:04.069Z,63.40
2019-03-24T06:47:04.044Z,69.70
2019-03-24T06:48:04.075Z,64.10
2019-03-24T06:49:04.020Z,68.60
2019-03-24T06:50:04.034Z,63.40
2019-03-24T06:51:04.001Z,60.40
2019-03-24T06:52:04.010Z,70.70
2019-03-24T06:53:04.024Z,59.80
2019-03-24T06:54:03.971Z,54.50
2019-03-24T06:55:03.962Z,57.90
2019-03-24T06:56:03.946Z,55.00
2019-03-24T06:57:04.006Z,46.40
2019-03-24T06:58:03.967Z,51.40
2019-03-24T06:59:03.928Z,55.40
2019-03-24T07:00:03.900Z,58.40
2019-03-24T07:01:03.933Z,50.80
2019-03-24T07:02:03.965Z,55.00
2019-03-24T07:03:03.913Z,53.40
2019-03-24T07:04:03.854Z,53.60
2019-03-24T07:05:03.860Z,54.00
2019-03-24T07:06:03.851Z,51.40
2019-03-24T07:07:03.895Z,52.60
2019-03-24T07:08:03.914Z,48.50
2019-03-24T07:09:03.810Z,51.10
2019-03-24T07:10:03.792Z,54.90
2019-03-24T07:11:09.512Z,54.50
2019-03-24T07:12:04.771Z,49.60
2019-03-24T07:13:03.810Z,50.90
2019-03-24T07:14:03.751Z,48.40
2019-03-24T07:15:03.783Z,50.50
2019-03-24T07:16:03.733Z,50.70
2019-03-24T07:17:03.725Z,44.40
2019-03-24T07:18:08.348Z,43.30
2019-03-24T07:19:04.686Z,38.30
2019-03-24T07:20:03.773Z,39.60
2019-03-24T07:21:03.694Z,36.20
2019-03-24T07:22:03.678Z,40.90
2019-03-24T07:23:03.702Z,38.90
2019-03-24T07:24:03.651Z,39.60
2019-03-24T07:25:03.636Z,35.20
2019-03-24T07:26:03.613Z,35.70
2019-03-24T07:27:03.612Z,32.30
2019-03-24T07:28:04.515Z,35.30
2019-03-24T07:29:03.614Z,37.90
2019-03-24T07:30:03.580Z,38.50
2019-03-24T07:31:03.558Z,33.60
2019-03-24T07:32:03.613Z,34.60
2019-03-24T07:33:03.578Z,35.40
2019-03-24T07:34:03.551Z,35.80
2019-03-24T07:35:03.521Z,34.90
2019-03-24T07:36:03.551Z,36.60
2019-03-24T07:37:03.496Z,34.30
2019-03-24T07:38:03.482Z,33.40
2019-03-24T07:39:03.518Z,33.50
2019-03-24T07:40:03.463Z,29.00
2019-03-24T07:41:03.454Z,28.90
2019-03-24T07:42:05.520Z,28.10
2019-03-24T07:43:03.433Z,32.40
2019-03-24T07:44:03.460Z,30.50
2019-03-24T07:45:03.412Z,34.50
2019-03-24T07:46:03.399Z,26.80
2019-03-24T07:47:03.392Z,28.80
2019-03-24T07:48:03.449Z,27.40
2019-03-24T07:49:03.405Z,26.50
2019-03-24T07:50:03.369Z,29.10
2019-03-24T07:51:03.338Z,30.00
2019-03-24T07:52:03.326Z,29.80
2019-03-24T07:53:03.323Z,28.10
2019-03-24T07:54:03.411Z,27.40
2019-03-24T07:55:03.295Z,24.00
2019-03-24T07:56:03.296Z,23.70
2019-03-24T07:57:03.284Z,26.40
2019-03-24T07:58:03.272Z,29.20
2019-03-24T07:59:03.304Z,26.90
2019-03-24T08:00:03.266Z,30.00
2019-03-24T08:01:03.235Z,30.40
2019-03-24T08:02:03.239Z,32.00
2019-03-24T08:03:03.217Z,28.90
2019-03-24T08:04:03.252Z,28.00
2019-03-24T08:05:03.207Z,29.50
2019-03-24T08:06:03.203Z,32.30
2019-03-24T08:07:03.172Z,27.90
2019-03-24T08:08:03.195Z,29.00
2019-03-24T08:09:03.205Z,25.00
2019-03-24T08:10:03.140Z,26.80
2019-03-24T08:11:03.132Z,26.90
2019-03-24T08:12:03.124Z,24.90
2019-03-24T08:13:03.112Z,26.60
2019-03-24T08:14:03.130Z,24.70
2019-03-24T08:15:03.085Z,28.60
2019-03-24T08:16:03.115Z,27.90
2019-03-24T08:17:03.059Z,29.50
2019-03-24T08:18:03.052Z,23.60
2019-03-24T08:19:03.097Z,26.20
2019-03-24T08:20:03.028Z,22.20
2019-03-24T08:21:03.075Z,21.30
2019-03-24T08:22:03.044Z,21.50
2019-03-24T08:23:03.064Z,21.00
2019-03-24T08:24:03.052Z,19.30
2019-03-24T08:25:02.975Z,22.20
2019-03-24T08:26:03.027Z,21.70
2019-03-24T08:27:02.973Z,22.50
2019-03-24T08:28:02.938Z,21.40
2019-03-24T08:29:03.017Z,22.00
2019-03-24T08:30:02.912Z,21.50
2019-03-24T08:31:02.921Z,19.90
2019-03-24T08:32:02.907Z,22.60
2019-03-24T08:33:02.893Z,20.40
2019-03-24T08:34:02.923Z,22.10
2019-03-24T08:35:02.900Z,23.00
2019-03-24T08:36:02.852Z,23.80
2019-03-24T08:37:02.917Z,24.40
2019-03-24T08:38:02.880Z,23.50
2019-03-24T08:39:02.872Z,19.40
2019-03-24T08:40:02.811Z,20.60
2019-03-24T08:41:02.851Z,22.10
2019-03-24T08:42:02.802Z,19.50
2019-03-24T08:43:02.771Z,24.70
2019-03-24T08:44:02.814Z,21.20
2019-03-24T08:45:02.747Z,20.80
2019-03-24T08:46:02.771Z,23.70
2019-03-24T08:47:02.730Z,20.30
2019-03-24T08:48:02.723Z,21.70
2019-03-24T08:49:02.748Z,22.80
2019-03-24T08:50:02.725Z,23.70
2019-03-24T08:51:02.701Z,24.80
2019-03-24T08:52:02.678Z,22.30
2019-03-24T08:53:02.666Z,23.90
2019-03-24T08:54:02.701Z,23.00
2019-03-24T08:55:02.649Z,19.40
2019-03-24T08:56:02.638Z,22.80
2019-03-24T08:57:02.628Z,19.90
2019-03-24T08:58:02.655Z,23.70
2019-03-24T08:59:04.313Z,22.90
2019-03-24T09:00:03.867Z,22.50
2019-03-24T09:01:02.572Z,22.30
2019-03-24T09:02:02.617Z,24.80
2019-03-24T09:03:02.577Z,24.70
2019-03-24T09:04:02.584Z,17.30
2019-03-24T09:05:02.535Z,23.90
2019-03-24T09:06:02.531Z,18.90
2019-03-24T09:07:02.509Z,20.60
2019-03-24T09:08:02.532Z,21.00
2019-03-24T09:09:02.549Z,20.80
2019-03-24T09:10:02.555Z,18.50
2019-03-24T09:11:02.521Z,19.50
2019-03-24T09:12:02.457Z,23.30
2019-03-24T09:13:02.508Z,22.70
2019-03-24T09:14:02.503Z,18.10
2019-03-24T09:15:02.415Z,20.00
2019-03-24T09:16:02.421Z,19.90
2019-03-24T09:17:02.453Z,21.60
2019-03-24T09:18:02.394Z,21.90
2019-03-24T09:19:02.428Z,21.40
2019-03-24T09:20:02.400Z,20.20
2019-03-24T09:21:02.359Z,19.70
2019-03-24T09:22:02.389Z,20.00
2019-03-24T09:23:02.386Z,18.70
2019-03-24T09:24:02.433Z,16.30
2019-03-24T09:25:02.336Z,15.40
2019-03-24T09:26:02.307Z,16.20
2019-03-24T09:27:02.311Z,17.10
2019-03-24T09:28:02.342Z,17.20
2019-03-24T09:29:02.310Z,18.40
2019-03-24T09:30:02.255Z,17.30
2019-03-24T09:31:02.245Z,17.70
2019-03-24T09:32:02.234Z,16.50
2019-03-24T09:33:02.277Z,16.60
2019-03-24T09:34:02.254Z,16.00
2019-03-24T09:35:02.227Z,17.70
2019-03-24T09:36:02.203Z,19.20
2019-03-24T09:37:02.195Z,16.20
2019-03-24T09:38:02.170Z,14.90
2019-03-24T09:39:02.166Z,16.60
2019-03-24T09:40:02.284Z,17.80
2019-03-24T09:41:02.148Z,18.40
2019-03-24T09:42:02.162Z,15.10
2019-03-24T09:43:02.136Z,15.30
2019-03-24T09:44:02.169Z,14.20
2019-03-24T09:45:02.153Z,16.20
2019-03-24T09:46:02.104Z,14.90
2019-03-24T09:47:02.078Z,14.00
2019-03-24T09:48:02.095Z,15.20
2019-03-24T09:49:03.267Z,13.40
2019-03-24T09:50:02.095Z,14.80
2019-03-24T09:51:02.029Z,13.90
2019-03-24T09:52:02.054Z,12.10
2019-03-24T09:53:02.016Z,12.50
2019-03-24T09:54:01.987Z,14.40
2019-03-24T09:55:03.340Z,13.10
2019-03-24T09:56:01.966Z,14.10
2019-03-24T09:57:02.033Z,14.60
2019-03-24T09:58:01.951Z,13.50
2019-03-24T09:59:01.939Z,12.20
2019-03-24T10:00:01.969Z,11.50
2019-03-24T10:01:01.918Z,11.40
2019-03-24T10:02:01.915Z,11.70
2019-03-24T10:03:01.939Z,10.80
2019-03-24T10:04:01.900Z,12.20
2019-03-24T10:05:01.928Z,13.10
2019-03-24T10:06:01.872Z,12.30
2019-03-24T10:07:01.872Z,10.70
2019-03-24T10:08:01.876Z,12.20
2019-03-24T10:09:01.834Z,13.40
2019-03-24T10:10:01.870Z,12.40
2019-03-24T10:11:01.812Z,12.00
2019-03-24T10:12:01.804Z,13.90
2019-03-24T10:13:01.798Z,12.30
2019-03-24T10:14:01.780Z,12.00
2019-03-24T10:15:01.855Z,11.40
2019-03-24T10:16:01.757Z,11.40
2019-03-24T10:17:01.745Z,12.50
2019-03-24T10:18:01.749Z,12.10
2019-03-24T10:19:01.726Z,11.50
2019-03-24T10:20:02.532Z,11.50
2019-03-24T10:21:01.811Z,10.30
2019-03-24T10:22:01.693Z,11.60
2019-03-24T10:23:01.684Z,11.00
2019-03-24T10:24:01.678Z,9.80
2019-03-24T10:25:01.698Z,11.20
2019-03-24T10:26:01.664Z,10.80
2019-03-24T10:27:01.709Z,11.10
2019-03-24T10:28:01.632Z,11.90
2019-03-24T10:29:01.643Z,9.10
2019-03-24T10:30:01.652Z,11.50
2019-03-24T10:31:01.595Z,10.00
2019-03-24T10:32:01.621Z,11.30
2019-03-24T10:33:01.572Z,9.50
2019-03-24T10:34:01.587Z,11.00
2019-03-24T10:35:01.592Z,11.90
2019-03-24T10:36:01.541Z,8.30
2019-03-24T10:37:01.535Z,10.60
2019-03-24T10:38:01.535Z,11.50
2019-03-24T10:39:01.504Z,10.80
2019-03-24T10:40:01.607Z,12.10
2019-03-24T10:41:01.506Z,10.60
2019-03-24T10:42:01.474Z,11.00
2019-03-24T10:43:01.479Z,11.00
2019-03-24T10:44:01.486Z,11.00
2019-03-24T10:45:01.491Z,10.20
2019-03-24T10:46:01.435Z,10.20
2019-03-24T10:47:01.471Z,9.60
2019-03-24T10:48:01.422Z,10.50
2019-03-24T10:49:01.451Z,10.80
2019-03-24T10:50:01.447Z,11.90
2019-03-24T10:51:01.378Z,8.90
2019-03-24T10:52:01.370Z,11.50
2019-03-24T10:53:01.364Z,8.90
2019-03-24T10:54:01.347Z,11.30
2019-03-24T10:55:01.388Z,11.50
2019-03-24T10:56:01.350Z,11.30
2019-03-24T10:57:01.314Z,13.20
2019-03-24T10:58:01.305Z,10.10
2019-03-24T10:59:01.289Z,13.50
2019-03-24T11:00:01.317Z,11.70
2019-03-24T11:01:01.273Z,9.50
2019-03-24T11:02:01.286Z,10.80
2019-03-24T11:03:01.250Z,12.20
2019-03-24T11:04:01.238Z,11.60
2019-03-24T11:05:01.270Z,12.30
2019-03-24T11:06:01.213Z,12.70
2019-03-24T11:07:01.205Z,10.70
2019-03-24T11:08:01.196Z,13.00
2019-03-24T11:09:01.183Z,12.70
2019-03-24T11:10:01.277Z,13.60
2019-03-24T11:11:01.167Z,13.50
2019-03-24T11:12:01.145Z,12.70
2019-03-24T11:13:01.144Z,15.00
2019-03-24T11:14:01.144Z,11.90
2019-03-24T11:15:01.112Z,13.00
2019-03-24T11:16:01.158Z,12.70
2019-03-24T11:17:01.141Z,12.50
2019-03-24T11:18:01.157Z,13.60
2019-03-24T11:19:01.067Z,12.20
2019-03-24T11:20:01.079Z,14.00
2019-03-24T11:21:01.122Z,12.80
2019-03-24T11:22:01.042Z,12.10
2019-03-24T11:23:01.059Z,12.50
2019-03-24T11:24:01.045Z,11.50
2019-03-24T11:25:01.005Z,11.60
2019-03-24T11:26:01.071Z,12.00
2019-03-24T11:27:01.026Z,11.00
2019-03-24T11:28:00.964Z,12.50
2019-03-24T11:29:00.957Z,12.40
2019-03-24T11:30:00.965Z,11.40
2019-03-24T11:31:00.941Z,10.50
2019-03-24T11:32:00.967Z,13.30
2019-03-24T11:33:00.929Z,14.40
2019-03-24T11:34:00.910Z,15.40
2019-03-24T11:35:00.911Z,15.40
2019-03-24T11:36:00.911Z,13.90
2019-03-24T11:37:00.960Z,14.50
2019-03-24T11:38:00.868Z,15.10
2019-03-24T11:39:00.872Z,11.90
2019-03-24T11:40:00.848Z,15.60
2019-03-24T11:41:00.824Z,13.60
2019-03-24T11:42:00.903Z,13.60
2019-03-24T11:43:00.837Z,12.80
2019-03-24T11:44:00.821Z,12.90
2019-03-24T11:45:00.863Z,11.30
2019-03-24T11:46:00.777Z,12.10
2019-03-24T11:47:00.816Z,12.10
2019-03-24T11:48:00.761Z,12.40
2019-03-24T11:49:00.762Z,11.60
2019-03-24T11:50:00.777Z,11.50
2019-03-24T11:51:00.720Z,10.60
2019-03-24T11:52:00.714Z,9.80
2019-03-24T11:53:00.809Z,10.80
2019-03-24T11:54:00.718Z,12.00
2019-03-24T11:55:00.717Z,13.40
2019-03-24T11:56:00.662Z,11.40
2019-03-24T11:57:00.672Z,12.00
2019-03-24T11:58:05.637Z,10.50
2019-03-24T11:59:01.665Z,13.00
2019-03-24T12:00:00.778Z,13.90
2019-03-24T12:01:00.612Z,11.90
2019-03-24T12:02:00.645Z,14.20
2019-03-24T12:03:00.648Z,13.00
2019-03-24T12:04:00.588Z,15.80
2019-03-24T12:05:00.593Z,13.80
2019-03-24T12:06:00.637Z,14.00
2019-03-24T12:07:00.554Z,14.50
2019-03-24T12:08:03.617Z,15.40
2019-03-24T12:09:00.518Z,12.80
2019-03-24T12:10:00.511Z,13.80
2019-03-24T12:11:00.520Z,14.10
2019-03-24T12:12:00.591Z,12.40
2019-03-24T12:13:00.489Z,12.10
2019-03-24T12:14:00.507Z,13.20
2019-03-24T12:15:00.462Z,12.90
2019-03-24T12:16:00.446Z,11.40
2019-03-24T12:17:00.446Z,13.80
2019-03-24T12:18:00.483Z,14.20
2019-03-24T12:19:01.058Z,12.20
2019-03-24T12:20:00.425Z,14.10
2019-03-24T12:21:00.402Z,14.80
2019-03-24T12:22:00.377Z,13.70
2019-03-24T12:23:00.442Z,13.90
2019-03-24T12:24:00.416Z,15.80
2019-03-24T12:25:00.490Z,14.40
2019-03-24T12:26:00.346Z,17.00
2019-03-24T12:27:00.337Z,17.70
2019-03-24T12:28:00.315Z,13.30
2019-03-24T12:29:00.340Z,15.40
2019-03-24T12:30:00.332Z,15.80
2019-03-24T12:31:00.286Z,17.40
2019-03-24T12:32:00.270Z,15.70
2019-03-24T12:33:00.260Z,19.00
2019-03-24T12:34:00.256Z,17.90
2019-03-24T12:35:00.345Z,17.30
2019-03-24T12:36:00.302Z,17.00
2019-03-24T12:37:00.219Z,19.60
2019-03-24T12:38:00.258Z,16.30
2019-03-24T12:39:00.208Z,18.70
2019-03-24T12:40:00.377Z,16.60
2019-03-24T12:41:00.220Z,19.70
2019-03-24T12:42:00.170Z,18.20
2019-03-24T12:43:00.156Z,15.20
2019-03-24T12:44:00.183Z,14.70
2019-03-24T12:45:00.162Z,17.20
2019-03-24T12:46:01.067Z,19.40
2019-03-24T12:47:00.151Z,16.10
2019-03-24T12:48:00.107Z,16.50
2019-03-24T12:49:00.106Z,17.90
2019-03-24T12:50:08.728Z,17.30
2019-03-24T12:51:01.108Z,18.10
2019-03-24T12:52:00.056Z,16.10